Alakai — WDI8094 — position and weather

sailwx.info

Track history (hours):
 
Tides and Currents Weather Stations Pressure Air Temp Water Temp Dewpoint Dewpoint Depression Visibility Wind Speed Wind Dir Waves Ship Positions

Alakai

Owner: Bay Ferries Ltd, Portland, ME. More information available from US FCC via Universal Licensing System and Coast Guard Vessel Documentation Center.

Last reported at 2017-Sep-15 17:37 UTC. Time now 2017-Sep-20 22:12 UTC.
Position N 43°38' W 070°13'.

Length 106 m; draft 3.3 m.

Type: High speed craft. MMSI: 369070000.

Date/timePositionNaut miles runAvg speedWind from/ knotsBaromVisibWave heightAir tempDewpointWater temp
2017-Sep-15 17:37N 43°38' W 070°13'221.9
2017-Sep-15 17:31N 43°36' W 070°11'1224.3
2017-Sep-15 17:00N 43°34' W 069°54'1530.7
2017-Sep-15 16:30N 43°35' W 069°33'5 0.1
2017-Sep-13 20:02N 43°35' W 069°40'232.1
2017-Sep-13 19:57N 43°34' W 069°43'1431.7
2017-Sep-13 19:31N 43°34' W 070°02'1019.7
2017-Sep-13 19:01N 43°39' W 070°13'1 2.0
2017-Sep-13 18:30N 43°40' W 070°15'0 0.0
2017-Sep-13 18:00N 43°40' W 070°15'0 0.4
2017-Sep-13 17:30N 43°39' W 070°15'917.1
2017-Sep-13 17:00N 43°33' W 070°06'16 0.4
2017-Sep-11 19:58N 43°34' W 069°44'1531.9
2017-Sep-11 19:31N 43°33' W 070°05'919.0
2017-Sep-11 19:01N 43°39' W 070°14'0 0.5
2017-Sep-11 18:30N 43°40' W 070°15'0 0.0
2017-Sep-11 18:01N 43°40' W 070°15'4 7.8
2017-Sep-11 17:31N 43°37' W 070°11'1224.0
2017-Sep-11 17:01N 43°34' W 069°55'30 0.7
2017-Sep-09 20:17N 43°36' W 069°14'931.5
2017-Sep-09 20:01N 43°35' W 069°27'1631.9
2017-Sep-09 19:31N 43°34' W 069°49'2 0.7
2017-Sep-09 16:39N 43°34' W 069°46'431.1
2017-Sep-09 16:30N 43°35' W 069°40'1631.2
2017-Sep-09 16:01N 43°36' W 069°18'1530.8
2017-Sep-09 15:31N 43°37' W 068°57'  
Track history (hours):
 
Tides and Currents Weather Stations Pressure Air Temp Water Temp Dewpoint Dewpoint Depression Visibility Wind Speed Wind Dir Waves Ship Positions

Alakai

Owner: Bay Ferries Ltd, Portland, ME. More information available from US FCC via Universal Licensing System and Coast Guard Vessel Documentation Center.

Last reported at 2017-Sep-15 17:37 UTC. Time now 2017-Sep-20 22:12 UTC.
Position N 43°38' W 070°13'.

Length 106 m; draft 3.3 m.

Type: High speed craft. MMSI: 369070000.

Date/timePositionNaut miles runAvg speedWind from/ knotsBaromVisibWave heightAir tempDewpointWater temp
2017-Sep-15 17:37N 43°38' W 070°13'221.9
2017-Sep-15 17:31N 43°36' W 070°11'1224.3
2017-Sep-15 17:00N 43°34' W 069°54'1530.7
2017-Sep-15 16:30N 43°35' W 069°33'5 0.1
2017-Sep-13 20:02N 43°35' W 069°40'232.1
2017-Sep-13 19:57N 43°34' W 069°43'1431.7
2017-Sep-13 19:31N 43°34' W 070°02'1019.7
2017-Sep-13 19:01N 43°39' W 070°13'1 2.0
2017-Sep-13 18:30N 43°40' W 070°15'0 0.0
2017-Sep-13 18:00N 43°40' W 070°15'0 0.4
2017-Sep-13 17:30N 43°39' W 070°15'917.1
2017-Sep-13 17:00N 43°33' W 070°06'16 0.4
2017-Sep-11 19:58N 43°34' W 069°44'1531.9
2017-Sep-11 19:31N 43°33' W 070°05'919.0
2017-Sep-11 19:01N 43°39' W 070°14'0 0.5
2017-Sep-11 18:30N 43°40' W 070°15'0 0.0
2017-Sep-11 18:01N 43°40' W 070°15'4 7.8
2017-Sep-11 17:31N 43°37' W 070°11'1224.0
2017-Sep-11 17:01N 43°34' W 069°55'30 0.7
2017-Sep-09 20:17N 43°36' W 069°14'931.5
2017-Sep-09 20:01N 43°35' W 069°27'1631.9
2017-Sep-09 19:31N 43°34' W 069°49'2 0.7
2017-Sep-09 16:39N 43°34' W 069°46'431.1
2017-Sep-09 16:30N 43°35' W 069°40'1631.2
2017-Sep-09 16:01N 43°36' W 069°18'1530.8
2017-Sep-09 15:31N 43°37' W 068°57'  

Dump ship's entire track history